Time;durP1;ratioP1;P1;durP2;ratioP2;P2;SDS_P1;SDS_P2;PMS_P1;PMS_P2;Temp;Humidity;BMP_temperature;BMP_pressure;BME280_temperature;BME280_humidity;BME280_pressure;Samples;Min_cycle;Max_cycle;Signal;HPM_P1;HPM_P2
2021/10/05 00:01:46;;;;;;;1.73;1.63;;;;;;;21.52;80.36;97199.63;5019767;28;20257;-64
2021/10/05 00:04:13;;;;;;;1.50;1.40;;;;;;;21.44;80.17;97175.56;5012892;28;20199;-66
2021/10/05 00:06:39;;;;;;;1.77;1.67;;;;;;;21.52;80.34;97180.88;4981281;28;20238;-64
2021/10/05 00:09:06;;;;;;;1.67;1.57;;;;;;;21.52;80.02;97179.19;4997510;28;20262;-64
2021/10/05 00:11:33;;;;;;;1.50;1.40;;;;;;;21.47;80.16;97167.97;4983905;28;20285;-63
2021/10/05 00:13:59;;;;;;;1.67;1.57;;;;;;;21.53;80.33;97165.56;4998705;28;20633;-64
2021/10/05 00:16:26;;;;;;;1.70;1.60;;;;;;;21.54;80.46;97169.00;5023397;28;20636;-63
2021/10/05 00:18:53;;;;;;;1.70;1.60;;;;;;;21.49;80.21;97150.13;5016990;28;20580;-63
2021/10/05 00:21:19;;;;;;;1.83;1.73;;;;;;;21.46;80.20;97135.56;4987853;28;20237;-65
2021/10/05 00:23:46;;;;;;;1.60;1.50;;;;;;;21.50;80.13;97145.03;4996086;28;20688;-64
2021/10/05 00:26:13;;;;;;;1.73;1.60;;;;;;;21.53;80.00;97141.72;5000381;28;20233;-63
2021/10/05 00:28:39;;;;;;;1.80;1.70;;;;;;;21.50;80.12;97144.19;5017780;28;20233;-64
2021/10/05 00:31:07;;;;;;;1.70;1.60;;;;;;;21.32;79.88;97111.38;4997375;28;20305;-66
2021/10/05 00:33:33;;;;;;;1.40;1.30;;;;;;;21.51;80.20;97146.78;4986640;28;20202;-62
2021/10/05 00:36:00;;;;;;;1.80;1.70;;;;;;;21.53;80.19;97150.22;4998405;28;20217;-65
2021/10/05 00:38:27;;;;;;;1.63;1.40;;;;;;;21.53;80.25;97151.94;5023405;28;20237;-64
2021/10/05 00:40:53;;;;;;;1.60;1.50;;;;;;;21.54;80.26;97143.44;5018467;28;20218;-64
2021/10/05 00:43:20;;;;;;;1.63;1.53;;;;;;;21.52;80.49;97133.16;5013254;28;20308;-63
2021/10/05 00:45:46;;;;;;;1.80;1.70;;;;;;;21.52;80.15;97138.28;4997805;28;20207;-64
2021/10/05 00:48:13;;;;;;;1.80;1.70;;;;;;;21.51;80.38;97141.66;4999457;28;20194;-66
2021/10/05 00:50:40;;;;;;;1.60;1.50;;;;;;;21.28;80.36;97098.47;4999634;28;20711;-64
2021/10/05 00:53:06;;;;;;;1.60;1.50;;;;;;;21.32;80.57;97097.75;4980808;28;21588;-64
2021/10/05 00:55:36;;;;;;;1.70;1.60;;;;;;;21.38;80.58;97111.50;4997185;28;20252;-64
2021/10/05 00:58:02;;;;;;;2.37;1.70;;;;;;;21.51;80.88;97126.34;4998192;28;20260;-62
2021/10/05 01:00:29;;;;;;;1.53;1.43;;;;;;;21.44;80.40;97108.25;4988394;28;20313;-65
2021/10/05 01:02:56;;;;;;;1.60;1.50;;;;;;;21.39;80.25;97094.50;4975568;28;20223;-64
2021/10/05 01:05:24;;;;;;;1.73;1.63;;;;;;;21.48;80.47;97098.13;5000883;28;20217;-63
2021/10/05 01:07:51;;;;;;;1.60;1.50;;;;;;;21.52;80.33;97091.38;5014365;28;20229;-63
2021/10/05 01:10:17;;;;;;;1.60;1.50;;;;;;;21.52;80.23;97091.38;5015335;28;20280;-63
2021/10/05 01:12:48;;;;;;;1.60;1.50;;;;;;;21.51;80.52;97080.31;5004637;28;20193;-64
2021/10/05 01:15:15;;;;;;;1.93;1.57;;;;;;;21.49;80.28;97075.97;5020796;28;20194;-64
2021/10/05 01:17:42;;;;;;;1.53;1.43;;;;;;;21.51;80.26;97075.19;5015457;28;20330;-63
2021/10/05 01:20:09;;;;;;;1.50;1.40;;;;;;;21.51;80.23;97075.19;5016731;28;20268;-62
2021/10/05 01:22:36;;;;;;;1.70;1.60;;;;;;;21.51;80.51;97072.63;4996189;28;20234;-64
2021/10/05 01:25:11;;;;;;;1.80;1.70;;;;;;;21.34;80.43;97043.28;5015478;28;20210;-63
2021/10/05 01:27:53;;;;;;;2.03;1.80;;;;;;;21.51;80.36;97064.97;4982083;28;20429;-64
2021/10/05 01:30:20;;;;;;;1.67;1.57;;;;;;;21.51;80.35;97064.97;5010634;28;20218;-65
2021/10/05 01:32:47;;;;;;;1.87;1.77;;;;;;;21.47;80.36;97052.09;4996793;28;20203;-63
2021/10/05 01:35:14;;;;;;;1.70;1.60;;;;;;;21.52;80.22;97045.34;4998115;28;20197;-65
2021/10/05 01:37:41;;;;;;;1.60;1.50;;;;;;;21.52;80.23;97047.91;4998842;28;20634;-64
2021/10/05 01:40:09;;;;;;;1.70;1.60;;;;;;;21.47;80.49;97042.69;5019797;28;20256;-63
2021/10/05 01:42:35;;;;;;;2.43;1.60;;;;;;;21.52;80.33;97053.91;4990628;28;20246;-64
2021/10/05 01:45:03;;;;;;;1.40;1.30;;;;;;;21.34;80.32;97027.06;5010993;28;20292;-62
2021/10/05 01:47:29;;;;;;;1.60;1.50;;;;;;;21.53;79.52;97052.22;4987323;28;20239;-63
2021/10/05 01:49:56;;;;;;;1.53;1.43;;;;;;;21.49;80.31;97047.84;4992798;28;20253;-64
2021/10/05 01:52:23;;;;;;;1.47;1.37;;;;;;;21.52;80.53;97046.22;4998172;28;20272;-63
2021/10/05 01:54:49;;;;;;;1.70;1.60;;;;;;;21.52;80.20;97051.34;5023294;28;20234;-64
2021/10/05 01:57:16;;;;;;;1.50;1.40;;;;;;;21.52;80.30;97055.59;5015946;28;20634;-64
2021/10/05 01:59:43;;;;;;;1.57;1.47;;;;;;;21.51;79.99;97054.75;4986461;28;20226;-65
2021/10/05 02:02:09;;;;;;;1.70;1.60;;;;;;;21.51;80.39;97052.19;5015758;28;20222;-64
2021/10/05 02:04:36;;;;;;;1.70;1.60;;;;;;;21.33;80.43;97010.88;4980065;28;20210;-63
2021/10/05 02:07:03;;;;;;;1.87;1.77;;;;;;;21.50;80.70;97026.59;4990999;28;20642;-64
2021/10/05 02:09:29;;;;;;;1.50;1.40;;;;;;;21.51;80.86;97030.84;5012032;28;20317;-64
2021/10/05 02:11:56;;;;;;;2.63;1.57;;;;;;;21.51;80.77;97030.84;5012810;28;20267;-64
2021/10/05 02:14:23;;;;;;;1.43;1.33;;;;;;;21.46;80.57;97017.97;5015983;28;20199;-65
2021/10/05 02:16:49;;;;;;;1.60;1.50;;;;;;;21.50;80.40;97001.84;4999398;28;20292;-64
2021/10/05 02:19:16;;;;;;;1.43;1.33;;;;;;;21.45;80.24;96995.81;5001674;28;20305;-63
2021/10/05 02:21:42;;;;;;;1.70;1.60;;;;;;;21.31;80.54;96953.75;4994417;28;20293;-65
2021/10/05 02:26:45;;;;;;;1.83;1.73;;;;;;;21.49;80.57;96953.25;4996829;28;20655;-64
2021/10/05 02:29:11;;;;;;;1.70;1.60;;;;;;;21.51;80.56;96962.69;5015588;28;20222;-66
2021/10/05 02:31:38;;;;;;;1.70;1.60;;;;;;;21.47;80.34;96937.03;4999345;28;20322;-64
2021/10/05 02:34:04;;;;;;;1.60;1.50;;;;;;;21.50;80.38;96929.44;4992700;28;20190;-64
2021/10/05 02:36:31;;;;;;;1.70;1.60;;;;;;;21.50;80.62;96932.00;5013246;28;20240;-64
2021/10/05 02:38:57;;;;;;;1.57;1.47;;;;;;;21.49;80.47;96923.44;4993642;28;20663;-63
2021/10/05 02:41:24;;;;;;;1.60;1.50;;;;;;;21.40;80.52;96907.06;5016728;28;20222;-65
2021/10/05 02:43:50;;;;;;;1.57;1.47;;;;;;;21.50;80.56;96921.75;4998830;28;20238;-64
2021/10/05 02:46:17;;;;;;;1.50;1.40;;;;;;;21.44;80.22;96907.16;5015899;28;20225;-63
2021/10/05 02:48:44;;;;;;;1.50;1.40;;;;;;;21.47;80.42;96911.47;5021071;28;20237;-63
2021/10/05 02:51:10;;;;;;;1.40;1.30;;;;;;;21.51;80.48;96915.81;5003991;28;20232;-65
2021/10/05 02:53:37;;;;;;;1.67;1.57;;;;;;;21.51;80.62;96910.69;5016125;28;20281;-64
2021/10/05 02:56:04;;;;;;;1.60;1.50;;;;;;;21.51;80.69;96916.69;4996790;28;20229;-63
2021/10/05 02:58:30;;;;;;;1.50;1.40;;;;;;;21.51;80.54;96914.13;5029529;28;20604;-63
2021/10/05 03:00:57;;;;;;;1.73;1.63;;;;;;;21.47;80.24;96908.91;5018756;28;20313;-65
2021/10/05 03:03:24;;;;;;;1.70;1.60;;;;;;;21.52;80.28;96927.75;4997085;28;20585;-63
2021/10/05 03:05:50;;;;;;;1.67;1.57;;;;;;;21.51;80.54;96928.59;5002853;28;20229;-63
2021/10/05 03:08:17;;;;;;;1.40;1.30;;;;;;;21.51;80.29;96936.25;5013513;28;20202;-63
2021/10/05 03:10:43;;;;;;;1.70;1.60;;;;;;;21.51;80.62;96929.47;4994007;28;20317;-65
2021/10/05 03:13:10;;;;;;;2.30;1.33;;;;;;;21.48;80.76;96929.41;5012931;28;20357;-64
2021/10/05 03:15:37;;;;;;;1.60;1.50;;;;;;;21.50;80.65;96944.78;5029420;28;20232;-62
2021/10/05 03:18:03;;;;;;;1.60;1.50;;;;;;;21.49;80.73;96943.91;5017609;28;20225;-62
2021/10/05 03:20:30;;;;;;;2.10;1.90;;;;;;;21.49;80.80;96935.34;5010295;28;20253;-65
2021/10/05 03:22:56;;;;;;;1.70;1.60;;;;;;;21.44;80.97;96919.94;5015520;28;20698;-64
2021/10/05 03:25:23;;;;;;;1.70;1.60;;;;;;;21.50;80.96;96934.53;4995346;28;20206;-62
2021/10/05 03:27:50;;;;;;;1.50;1.40;;;;;;;21.50;80.56;96922.59;5005074;28;20198;-64
2021/10/05 03:30:17;;;;;;;1.70;1.60;;;;;;;21.45;80.71;96903.78;5009456;28;20245;-64
2021/10/05 03:32:43;;;;;;;1.60;1.50;;;;;;;21.49;80.87;96908.09;4982840;28;20238;-65
2021/10/05 03:35:10;;;;;;;1.57;1.47;;;;;;;21.50;80.83;96911.53;5010035;28;20647;-64
2021/10/05 03:37:36;;;;;;;1.53;1.43;;;;;;;21.32;80.70;96873.66;4998142;28;20263;-64
2021/10/05 03:40:06;;;;;;;3.70;1.50;;;;;;;21.49;80.67;96885.09;4990907;28;20257;-63
2021/10/05 03:42:33;;;;;;;1.80;1.50;;;;;;;21.49;80.83;96887.66;5013242;28;20674;-64
2021/10/05 03:44:59;;;;;;;1.40;1.30;;;;;;;21.50;80.60;96879.13;5020588;28;20195;-64
2021/10/05 03:47:26;;;;;;;1.50;1.40;;;;;;;21.51;80.75;96867.22;5014632;28;20285;-64
2021/10/05 03:49:53;;;;;;;1.57;1.47;;;;;;;21.47;80.73;96856.06;4993253;28;20296;-64
2021/10/05 03:52:19;;;;;;;1.50;1.40;;;;;;;21.50;80.87;96856.13;4996316;28;20199;-63
2021/10/05 03:54:46;;;;;;;1.43;1.33;;;;;;;21.52;80.61;96856.16;5017234;28;20237;-66
2021/10/05 03:57:12;;;;;;;1.53;1.43;;;;;;;21.47;80.80;96850.13;5019271;28;20242;-64
2021/10/05 03:59:39;;;;;;;1.60;1.50;;;;;;;21.50;80.71;96858.69;4992795;28;20741;-64
2021/10/05 04:02:07;;;;;;;1.50;1.40;;;;;;;21.51;80.61;96857.88;5017482;28;20669;-63
2021/10/05 04:04:34;;;;;;;1.50;1.40;;;;;;;21.07;80.70;96787.16;4993580;28;20231;-63
2021/10/05 04:07:00;;;;;;;1.80;1.63;;;;;;;21.51;80.60;96864.69;5018212;28;20229;-63
2021/10/05 04:09:27;;;;;;;1.50;1.40;;;;;;;21.47;80.90;96863.75;5017499;28;20253;-64
2021/10/05 04:11:53;;;;;;;1.63;1.50;;;;;;;21.52;80.68;96874.94;4997060;28;20237;-66
2021/10/05 04:14:20;;;;;;;1.40;1.30;;;;;;;21.52;80.31;96876.63;5017210;28;20217;-63
2021/10/05 04:16:47;;;;;;;1.60;1.50;;;;;;;21.52;80.54;96869.81;5018907;28;20579;-64
2021/10/05 04:21:49;;;;;;;1.67;1.57;;;;;;;21.50;80.82;96850.19;4990655;28;20317;-64
2021/10/05 04:24:15;;;;;;;1.70;1.60;;;;;;;21.42;80.67;96828.72;4996058;28;20250;-64
2021/10/05 04:26:42;;;;;;;1.60;1.50;;;;;;;21.48;81.04;96859.50;4981442;28;20241;-63
2021/10/05 04:29:08;;;;;;;1.60;1.50;;;;;;;21.40;80.54;96854.25;4996585;28;20334;-66
2021/10/05 04:31:37;;;;;;;1.60;1.50;;;;;;;21.50;81.01;96863.81;4997215;28;20285;-64
2021/10/05 04:34:03;;;;;;;1.70;1.60;;;;;;;21.48;80.83;96862.94;4993834;28;20542;-65
2021/10/05 04:36:30;;;;;;;1.83;1.40;;;;;;;21.48;81.03;96860.38;4993107;28;20238;-64
2021/10/05 04:38:57;;;;;;;1.63;1.53;;;;;;;21.51;81.02;96867.22;4992932;28;20596;-64
2021/10/05 04:41:23;;;;;;;1.93;1.83;;;;;;;21.50;80.93;96860.41;4992246;28;20239;-65
2021/10/05 04:43:50;;;;;;;1.80;1.70;;;;;;;21.50;80.90;96863.81;4981289;28;20219;-64
2021/10/05 04:46:18;;;;;;;1.50;1.40;;;;;;;21.37;80.49;96836.28;4994315;28;20229;-64
2021/10/05 04:48:45;;;;;;;1.73;1.63;;;;;;;21.51;80.99;96844.22;4998973;28;20226;-62
2021/10/05 04:51:11;;;;;;;1.40;1.30;;;;;;;21.53;80.91;96851.06;4996046;28;20253;-63
2021/10/05 04:53:38;;;;;;;1.50;1.40;;;;;;;21.53;81.02;96845.13;4993806;28;20779;-64
2021/10/05 04:56:05;;;;;;;1.70;1.60;;;;;;;21.53;80.87;96847.69;4993610;28;20254;-65
2021/10/05 04:58:31;;;;;;;1.53;1.43;;;;;;;21.49;80.58;96838.22;4993200;28;20230;-64
2021/10/05 05:00:58;;;;;;;1.60;1.50;;;;;;;21.52;80.42;96846.81;4994246;28;20222;-64
2021/10/05 05:03:25;;;;;;;1.70;1.60;;;;;;;21.53;80.79;96842.56;4990934;28;20315;-64
2021/10/05 05:05:51;;;;;;;1.87;1.77;;;;;;;21.54;80.47;96849.38;4994099;28;20231;-64
2021/10/05 05:08:18;;;;;;;5.47;2.20;;;;;;;21.53;80.24;96847.69;4993061;28;20734;-63
2021/10/05 05:10:44;;;;;;;2.10;1.90;;;;;;;21.54;79.75;96857.06;5009269;28;20340;-63
2021/10/05 05:13:11;;;;;;;4.60;2.10;;;;;;;21.49;79.98;96844.19;4996592;28;20206;-65
2021/10/05 05:15:39;;;;;;;1.80;1.70;;;;;;;21.54;80.23;96851.94;4992432;28;20234;-65
2021/10/05 05:18:06;;;;;;;2.80;1.40;;;;;;;21.54;80.60;96868.16;4993646;28;20199;-65
2021/10/05 05:20:32;;;;;;;1.50;1.40;;;;;;;21.55;80.06;96866.44;4992353;28;20262;-63
2021/10/05 05:22:59;;;;;;;1.50;1.40;;;;;;;21.50;80.49;96865.53;4991945;28;20720;-65
2021/10/05 05:25:25;;;;;;;1.60;1.50;;;;;;;21.52;80.44;96866.38;4992101;28;20241;-64
2021/10/05 05:27:52;;;;;;;1.80;1.70;;;;;;;21.55;80.33;96877.53;4982299;28;20290;-64
2021/10/05 05:30:18;;;;;;;1.77;1.67;;;;;;;21.56;80.47;96879.25;4995102;28;20215;-65
2021/10/05 05:32:45;;;;;;;1.80;1.70;;;;;;;21.53;80.49;96873.25;4991889;28;20214;-63
2021/10/05 05:35:12;;;;;;;1.60;1.50;;;;;;;21.56;80.15;96881.81;4990651;28;20231;-63
2021/10/05 05:37:38;;;;;;;1.60;1.50;;;;;;;21.51;80.06;96880.00;4989606;28;20270;-63
2021/10/05 05:40:05;;;;;;;1.50;1.40;;;;;;;21.55;80.32;96892.00;4990900;28;20250;-64
2021/10/05 05:42:32;;;;;;;2.00;1.67;;;;;;;21.53;80.69;96906.47;4993901;28;20671;-64
2021/10/05 05:44:58;;;;;;;1.67;1.57;;;;;;;21.35;80.46;96870.34;4996271;28;20254;-63
2021/10/05 05:47:25;;;;;;;1.60;1.50;;;;;;;21.54;80.70;96903.97;4993379;28;20257;-64
2021/10/05 05:49:52;;;;;;;2.87;1.73;;;;;;;21.54;80.82;96893.72;4988561;28;20250;-64
2021/10/05 05:52:18;;;;;;;1.70;1.60;;;;;;;21.49;80.28;96887.66;4989191;28;20238;-64
2021/10/05 05:54:45;;;;;;;1.87;1.70;;;;;;;21.53;80.69;96891.97;4991018;28;20235;-64
2021/10/05 05:57:11;;;;;;;1.90;1.73;;;;;;;21.54;80.46;96887.75;4990462;28;20283;-63
2021/10/05 05:59:38;;;;;;;1.70;1.60;;;;;;;21.54;80.57;96893.72;4990705;28;20695;-64
2021/10/05 06:02:04;;;;;;;1.90;1.70;;;;;;;21.54;80.59;96880.06;4989032;28;20675;-65
2021/10/05 06:04:31;;;;;;;1.70;1.60;;;;;;;21.52;80.29;96880.03;5005809;28;20222;-64
2021/10/05 06:06:58;;;;;;;1.50;1.40;;;;;;;21.51;80.48;96874.91;4989547;28;20286;-62
2021/10/05 06:09:24;;;;;;;1.70;1.60;;;;;;;21.54;80.47;96878.38;4989948;28;20254;-64
2021/10/05 06:12:01;;;;;;;1.70;1.60;;;;;;;21.48;80.63;96867.16;4989038;28;20202;-64
2021/10/05 06:14:29;;;;;;;1.57;1.47;;;;;;;21.54;80.51;96887.75;4990704;28;20257;-64
2021/10/05 06:16:56;;;;;;;1.50;1.40;;;;;;;21.54;80.50;96880.06;4990270;28;20761;-65
2021/10/05 06:19:23;;;;;;;1.83;1.73;;;;;;;21.51;80.73;96869.78;4990917;28;20207;-62
2021/10/05 06:21:49;;;;;;;1.70;1.60;;;;;;;21.54;80.33;96882.63;4989521;28;20249;-63
2021/10/05 06:24:16;;;;;;;1.80;1.70;;;;;;;21.53;80.63;96886.03;4990470;28;20266;-64
2021/10/05 06:26:42;;;;;;;1.73;1.63;;;;;;;21.54;80.44;96887.75;4990443;28;20657;-64
2021/10/05 06:29:09;;;;;;;1.77;1.67;;;;;;;21.52;80.44;96880.03;4990100;28;20628;-64
2021/10/05 06:31:36;;;;;;;9.13;3.80;;;;;;;21.55;79.51;96892.88;4991393;28;20296;-62
2021/10/05 06:34:02;;;;;;;5.97;4.40;;;;;;;21.55;78.67;96884.34;4993063;28;20234;-62
2021/10/05 06:36:29;;;;;;;7.30;5.37;;;;;;;21.55;78.29;96887.78;4994093;28;20217;-64
2021/10/05 06:38:55;;;;;;;8.37;5.23;;;;;;;21.55;77.63;96884.34;4992424;28;20241;-62
2021/10/05 06:41:22;;;;;;;6.83;4.80;;;;;;;21.55;78.03;96880.09;4992817;28;20255;-64
2021/10/05 06:43:49;;;;;;;6.30;4.43;;;;;;;21.55;78.28;96882.66;4993874;28;20313;-63
2021/10/05 06:46:16;;;;;;;7.00;4.00;;;;;;;21.50;78.52;96866.34;4992578;28;20290;-63
2021/10/05 06:48:42;;;;;;;4.37;3.97;;;;;;;21.54;78.61;96877.50;4992699;28;20237;-64
2021/10/05 06:51:09;;;;;;;6.07;4.30;;;;;;;21.54;78.88;96882.63;4994105;28;20223;-64
2021/10/05 06:53:36;;;;;;;6.00;4.13;;;;;;;21.54;78.27;96882.63;4994187;28;20605;-65
2021/10/05 06:56:03;;;;;;;4.20;3.80;;;;;;;21.53;79.15;96883.47;4994733;28;20245;-63
2021/10/05 06:58:29;;;;;;;4.40;3.57;;;;;;;21.50;79.31;96878.31;4992686;28;20226;-65
2021/10/05 07:00:56;;;;;;;3.90;3.50;;;;;;;21.47;79.40;96871.41;5009195;28;20253;-63
2021/10/05 07:03:22;;;;;;;5.40;3.73;;;;;;;21.46;79.42;96867.16;4992634;28;20203;-63
2021/10/05 07:05:50;;;;;;;5.13;3.40;;;;;;;21.52;79.55;96879.16;5008533;28;20330;-63
2021/10/05 07:08:17;;;;;;;3.33;3.00;;;;;;;21.52;79.49;96872.38;4996581;28;20249;-63
2021/10/05 07:10:44;;;;;;;4.10;3.43;;;;;;;21.52;79.85;96874.06;4993824;28;20281;-64
2021/10/05 07:13:10;;;;;;;4.63;3.10;;;;;;;21.52;79.81;96877.50;4994247;28;20231;-63
2021/10/05 07:15:37;;;;;;;3.17;2.87;;;;;;;21.52;79.70;96882.59;4993229;28;20227;-63
2021/10/05 07:18:03;;;;;;;4.00;2.70;;;;;;;21.52;79.88;96895.38;4994005;28;20282;-64
2021/10/05 07:20:30;;;;;;;3.37;3.07;;;;;;;21.52;79.76;96895.38;4994885;28;20263;-63
2021/10/05 07:22:57;;;;;;;4.43;3.43;;;;;;;21.52;79.20;96891.94;4993711;28;20253;-64
2021/10/05 07:25:26;;;;;;;4.37;3.80;;;;;;;21.48;78.53;96872.28;4993347;28;20233;-65
2021/10/05 07:27:52;;;;;;;5.50;4.53;;;;;;;21.49;78.25;96879.97;4984657;28;20253;-64
2021/10/05 07:30:23;;;;;;;5.40;3.97;;;;;;;21.48;78.30;96872.28;4995787;28;20311;-64
2021/10/05 07:33:01;;;;;;;4.23;3.80;;;;;;;21.50;78.39;96881.69;4992486;28;20410;-65
2021/10/05 07:35:29;;;;;;;3.93;3.53;;;;;;;21.48;78.67;96895.28;4992044;28;20281;-63
2021/10/05 07:37:55;;;;;;;4.17;3.70;;;;;;;21.53;78.71;96911.59;4999034;28;20233;-64
2021/10/05 07:40:22;;;;;;;3.40;3.10;;;;;;;21.50;79.16;96907.25;4993662;28;20242;-63
2021/10/05 07:42:49;;;;;;;5.37;3.27;;;;;;;21.52;79.06;96913.28;4994751;28;20207;-64
2021/10/05 07:45:16;;;;;;;3.73;2.90;;;;;;;21.53;79.07;96915.00;4993410;28;20225;-63
2021/10/05 07:47:43;;;;;;;3.40;3.10;;;;;;;21.53;79.12;96909.88;4992231;28;20238;-64
2021/10/05 07:50:09;;;;;;;3.00;2.80;;;;;;;21.48;79.30;96896.16;5008083;28;20672;-64
2021/10/05 07:52:36;;;;;;;3.30;3.00;;;;;;;21.53;79.53;96902.22;4994334;28;20293;-64
2021/10/05 07:55:04;;;;;;;3.10;2.80;;;;;;;21.52;79.49;96905.59;4990126;28;20224;-64
2021/10/05 07:57:31;;;;;;;3.13;2.80;;;;;;;21.54;79.79;96908.19;4993563;28;20249;-64
2021/10/05 07:59:57;;;;;;;3.33;2.90;;;;;;;21.50;79.60;96920.03;4992727;28;20246;-63
2021/10/05 08:02:24;;;;;;;3.03;2.83;;;;;;;21.52;79.69;96926.06;4992167;28;20231;-66
2021/10/05 08:04:52;;;;;;;3.47;2.60;;;;;;;21.53;79.51;96938.00;5004137;28;20635;-63
2021/10/05 08:07:18;;;;;;;3.33;3.00;;;;;;;21.51;79.71;96934.56;4994842;28;20231;-63
2021/10/05 08:09:45;;;;;;;3.87;2.70;;;;;;;21.53;79.41;96940.56;4990903;28;20678;-62
2021/10/05 08:12:12;;;;;;;2.97;2.77;;;;;;;21.50;79.64;96932.00;4992035;28;20623;-65
2021/10/05 08:14:39;;;;;;;4.50;3.10;;;;;;;21.53;79.69;96926.94;4993502;28;20230;-63
2021/10/05 08:17:06;;;;;;;2.87;2.67;;;;;;;21.52;79.74;96922.63;4991603;28;20202;-63
2021/10/05 08:19:32;;;;;;;2.73;2.47;;;;;;;21.48;79.87;96906.41;4991676;28;20285;-64
2021/10/05 08:21:59;;;;;;;2.77;2.43;;;;;;;21.53;80.01;96911.59;4991500;28;20230;-63
2021/10/05 08:24:27;;;;;;;2.70;2.40;;;;;;;21.50;79.97;96906.41;4993566;28;20250;-64
2021/10/05 08:26:53;;;;;;;2.83;2.47;;;;;;;21.51;79.87;96920.91;4995451;28;20261;-64
2021/10/05 08:29:20;;;;;;;2.60;2.40;;;;;;;21.53;79.72;96929.50;4989987;28;20234;-64
2021/10/05 08:31:48;;;;;;;2.93;2.70;;;;;;;21.52;79.78;96920.06;4991283;28;20251;-65
2021/10/05 08:34:15;;;;;;;2.60;2.33;;;;;;;21.53;79.73;96915.00;4990289;28;20210;-64
2021/10/05 08:36:42;;;;;;;2.80;2.57;;;;;;;21.51;80.03;96909.00;4989063;28;20231;-63
2021/10/05 08:39:10;;;;;;;2.50;2.30;;;;;;;21.52;79.71;96909.84;4989447;28;20285;-64
2021/10/05 08:41:37;;;;;;;2.60;2.40;;;;;;;21.53;79.78;96906.47;4992447;28;20297;-65
2021/10/05 08:44:04;;;;;;;2.60;2.40;;;;;;;21.53;80.12;96909.88;4990542;28;20690;-64
2021/10/05 08:46:35;;;;;;;2.70;2.50;;;;;;;21.52;79.73;96890.28;4990915;28;20230;-63
2021/10/05 08:49:01;;;;;;;2.33;2.13;;;;;;;21.53;79.75;96893.69;4989691;28;20207;-64
2021/10/05 08:51:28;;;;;;;3.23;2.53;;;;;;;21.49;79.82;96890.22;4990030;28;20334;-65
2021/10/05 08:53:55;;;;;;;2.60;2.40;;;;;;;21.50;79.69;96901.31;4988807;28;20664;-64
2021/10/05 08:56:21;;;;;;;2.37;2.17;;;;;;;21.54;80.12;96910.75;4989142;28;20290;-64
2021/10/05 08:58:48;;;;;;;3.23;2.43;;;;;;;21.54;79.99;96914.19;4990476;28;20750;-64
2021/10/05 09:01:15;;;;;;;2.40;2.20;;;;;;;21.55;79.96;96918.44;4990713;28;20649;-63
2021/10/05 09:04:01;;;;;;;2.60;2.40;;;;;;;21.55;79.83;96899.69;4990221;28;20225;-64
2021/10/05 09:06:28;;;;;;;2.60;2.40;;;;;;;21.55;79.80;96905.66;4990658;28;20238;-63
2021/10/05 09:08:54;;;;;;;2.57;2.37;;;;;;;21.54;79.84;96906.50;4990807;28;20199;-65
2021/10/05 09:11:26;;;;;;;2.20;2.00;;;;;;;21.54;79.76;96918.44;4990288;28;20777;-63
2021/10/05 09:13:56;;;;;;;2.27;2.07;;;;;;;21.54;79.80;96914.19;4989107;28;20230;-66
2021/10/05 09:16:27;;;;;;;2.10;2.00;;;;;;;21.53;79.88;96902.22;5005082;28;20350;-64
2021/10/05 09:19:03;;;;;;;2.20;2.07;;;;;;;21.53;79.84;96904.75;4994283;28;20289;-64
2021/10/05 09:21:30;;;;;;;2.30;2.10;;;;;;;21.54;80.08;96909.06;4990297;28;20300;-63
2021/10/05 09:24:00;;;;;;;2.00;1.90;;;;;;;21.55;79.96;96912.47;4990284;28;20230;-63
2021/10/05 09:26:50;;;;;;;2.73;2.10;;;;;;;21.53;80.31;96912.44;4988114;28;20203;-62
2021/10/05 09:29:37;;;;;;;2.27;2.07;;;;;;;21.53;80.12;96915.00;4985053;28;20226;-64
2021/10/05 09:32:08;;;;;;;2.20;2.00;;;;;;;21.51;80.13;96903.91;4988389;28;20586;-65
2021/10/05 09:34:39;;;;;;;2.37;2.17;;;;;;;21.53;80.10;96898.81;4992425;28;20234;-65
2021/10/05 09:37:16;;;;;;;2.13;1.93;;;;;;;21.48;80.01;96900.41;4988403;28;20237;-63
2021/10/05 09:39:47;;;;;;;2.33;2.03;;;;;;;21.48;79.89;96901.28;4988430;28;20234;-64
2021/10/05 09:42:23;;;;;;;2.93;2.20;;;;;;;21.49;80.08;96908.09;4989881;28;20561;-64
2021/10/05 09:44:52;;;;;;;2.30;2.10;;;;;;;21.48;80.11;96905.53;4986732;28;20238;-64
2021/10/05 09:47:49;;;;;;;1.90;1.80;;;;;;;21.30;80.03;96871.94;4979362;28;20207;-63
2021/10/05 09:50:18;;;;;;;2.20;1.97;;;;;;;21.53;80.02;96911.59;4975327;28;20230;-63
2021/10/05 09:52:49;;;;;;;2.07;1.97;;;;;;;21.52;80.04;96913.28;4991077;28;20246;-64
2021/10/05 09:55:18;;;;;;;2.47;2.00;;;;;;;21.49;80.08;96910.66;4990242;28;20626;-64
2021/10/05 09:57:44;;;;;;;2.20;2.00;;;;;;;21.39;79.99;96898.53;4986331;28;20318;-64
2021/10/05 10:00:11;;;;;;;2.00;1.73;;;;;;;21.40;80.10;96897.69;4988168;28;20668;-63
2021/10/05 10:02:39;;;;;;;2.57;2.10;;;;;;;21.49;80.14;96925.13;4991089;28;20234;-63
2021/10/05 10:05:07;;;;;;;2.10;1.90;;;;;;;21.51;80.14;96924.34;4989252;28;20215;-63
2021/10/05 10:07:37;;;;;;;3.60;1.90;;;;;;;21.53;80.17;96927.78;4997134;28;20307;-65
2021/10/05 10:10:15;;;;;;;2.20;1.83;;;;;;;21.49;80.05;96915.78;4991597;28;20297;-63
2021/10/05 10:12:45;;;;;;;2.00;1.90;;;;;;;21.52;80.20;96925.19;4993374;28;20679;-63
2021/10/05 10:15:12;;;;;;;2.00;1.90;;;;;;;21.49;80.12;96918.34;4993614;28;20206;-63
2021/10/05 10:17:38;;;;;;;2.27;1.83;;;;;;;21.41;80.34;96899.41;4980521;28;20202;-65
2021/10/05 10:20:06;;;;;;;1.60;1.50;;;;;;;21.40;79.96;96915.59;5021133;22;20290;-69
2021/10/05 10:22:44;;;;;;;2.23;2.03;;;;;;;19.86;80.08;96656.06;5003319;28;20626;-70
2021/10/05 10:25:23;;;;;;;1.97;1.60;;;;;;;21.44;80.20;96912.25;5025209;28;20291;-71
2021/10/05 10:27:56;;;;;;;1.80;1.70;;;;;;;21.35;80.18;96889.06;5029618;28;20260;-69
2021/10/05 10:30:26;;;;;;;1.90;1.80;;;;;;;20.67;80.00;96779.50;4998014;28;20237;-70
2021/10/05 10:33:03;;;;;;;3.00;1.80;;;;;;;21.49;79.89;96922.56;5027110;28;20225;-70
2021/10/05 10:35:30;;;;;;;2.07;1.93;;;;;;;21.43;80.22;96917.34;5034247;28;20646;-71
2021/10/05 10:37:57;;;;;;;1.87;1.77;;;;;;;21.44;80.45;96942.09;5010563;28;20201;-70
2021/10/05 10:40:33;;;;;;;1.73;1.63;;;;;;;21.51;80.13;96934.56;5032670;28;20645;-71
2021/10/05 10:43:12;;;;;;;1.83;1.73;;;;;;;21.52;80.25;96932.84;5049123;28;20603;-70
2021/10/05 10:45:46;;;;;;;1.77;1.67;;;;;;;21.46;80.45;96908.03;5042902;28;20228;-70
2021/10/05 10:48:34;;;;;;;1.93;1.83;;;;;;;21.51;80.35;96916.69;5037390;28;20223;-70
2021/10/05 10:51:13;;;;;;;1.90;1.80;;;;;;;21.52;80.37;96914.97;5025584;28;20221;-71
2021/10/05 10:53:40;;;;;;;3.30;1.87;;;;;;;21.35;80.26;96886.50;5048386;28;20271;-71
2021/10/05 10:56:07;;;;;;;2.17;1.97;;;;;;;21.52;80.03;96908.16;5018987;28;20272;-70
2021/10/05 10:58:40;;;;;;;2.30;1.87;;;;;;;21.52;80.43;96912.41;5023970;28;20292;-70
2021/10/05 11:01:14;;;;;;;1.83;1.73;;;;;;;21.52;80.10;96915.84;5017956;28;20214;-70
2021/10/05 11:03:41;;;;;;;1.80;1.70;;;;;;;21.51;80.11;96906.44;5035366;28;20212;-70
2021/10/05 11:06:23;;;;;;;2.87;2.00;;;;;;;21.37;80.15;96882.31;5020917;28;20225;-70
2021/10/05 11:08:55;;;;;;;2.27;2.07;;;;;;;21.28;80.24;96860.81;5026788;28;20704;-71
2021/10/05 11:11:38;;;;;;;1.90;1.80;;;;;;;21.22;80.19;96855.56;5003617;28;20230;-71
2021/10/05 11:14:07;;;;;;;2.10;1.97;;;;;;;21.48;80.25;96908.06;5024771;28;20256;-71
2021/10/05 11:16:34;;;;;;;2.00;1.90;;;;;;;21.45;80.33;96897.78;5024493;28;20197;-71
2021/10/05 11:19:06;;;;;;;2.20;2.00;;;;;;;21.45;80.17;96900.34;5007051;28;20228;-69
2021/10/05 11:21:34;;;;;;;2.30;2.10;;;;;;;21.37;80.13;96887.41;5027881;28;20501;-69
2021/10/05 11:24:00;;;;;;;2.30;2.10;;;;;;;21.53;80.09;96919.25;5017102;28;20236;-68
2021/10/05 11:26:37;;;;;;;2.50;2.30;;;;;;;21.49;80.10;96912.34;5041813;28;20641;-72
2021/10/05 11:29:05;;;;;;;2.50;2.30;;;;;;;21.45;80.24;96908.88;5038899;28;20250;-71
2021/10/05 11:31:54;;;;;;;2.63;2.43;;;;;;;21.53;80.00;96916.72;5020758;28;20643;-71
2021/10/05 11:34:20;;;;;;;2.53;2.30;;;;;;;21.52;80.36;96920.94;5025536;28;20216;-70
2021/10/05 11:36:47;;;;;;;2.70;2.50;;;;;;;21.54;80.06;96929.53;5013334;28;20228;-71
2021/10/05 11:39:22;;;;;;;2.50;2.30;;;;;;;21.54;80.00;96923.53;5009020;28;20207;-72
2021/10/05 11:41:55;;;;;;;2.40;2.20;;;;;;;21.47;80.28;96911.47;5003723;28;20265;-69
2021/10/05 11:44:23;;;;;;;2.20;2.10;;;;;;;21.47;80.00;96919.97;4995352;28;20737;-69